Time;durP1;ratioP1;P1;durP2;ratioP2;P2;SDS_P1;SDS_P2;PMS_P1;PMS_P2;Temp;Humidity;BMP_temperature;BMP_pressure;BME280_temperature;BME280_humidity;BME280_pressure;Samples;Min_cycle;Max_cycle;Signal;HPM_P1;HPM_P2
2021/01/03 00:00:28;;;;;;;;;;;12.70;54.50;;;;;;2582641;23;19920;-71
2021/01/03 00:01:29;;;;;;;;;;;12.70;54.50;;;;;;2582625;23;20340;-71
2021/01/03 00:02:31;;;;;;;;;;;12.70;54.60;;;;;;2582429;23;19927;-71
2021/01/03 00:03:32;;;;;;;;;;;12.60;54.40;;;;;;2582843;23;19919;-69
2021/01/03 00:04:34;;;;;;;;;;;12.40;55.10;;;;;;2582514;23;20280;-70
2021/01/03 00:05:35;;;;;;;;;;;12.40;55.20;;;;;;2582629;23;20074;-71
2021/01/03 00:06:37;;;;;;;;;;;12.50;55.20;;;;;;2582487;23;19924;-71
2021/01/03 00:07:39;;;;;;;;;;;12.50;55.00;;;;;;2582639;23;19927;-70
2021/01/03 00:08:40;;;;;;;;;;;12.60;54.90;;;;;;2582756;23;19920;-71
2021/01/03 00:09:42;;;;;;;;;;;12.60;54.90;;;;;;2582442;23;19926;-71
2021/01/03 00:10:43;;;;;;;;;;;12.60;54.80;;;;;;2582625;23;19973;-71
2021/01/03 00:11:46;;;;;;;;;;;12.60;54.70;;;;;;2582603;23;19943;-70
2021/01/03 00:12:47;;;;;;;;;;;12.70;54.70;;;;;;2569358;23;19924;-70
2021/01/03 00:13:49;;;;;;;;;;;12.70;54.70;;;;;;2569591;23;19920;-71
2021/01/03 00:14:50;;;;;;;;;;;12.70;54.70;;;;;;2582789;23;19919;-70
2021/01/03 00:15:52;;;;;;;;;;;12.70;54.60;;;;;;2582666;23;19919;-71
2021/01/03 00:16:53;;;;;;;;;;;12.70;54.50;;;;;;2582772;23;19920;-70
2021/01/03 00:17:55;;;;;;;;;;;12.70;54.50;;;;;;2582575;23;19920;-70
2021/01/03 00:18:56;;;;;;;;;;;12.70;54.60;;;;;;2582621;23;19919;-71
2021/01/03 00:19:58;;;;;;;;;;;12.70;54.60;;;;;;2582906;23;19926;-71
2021/01/03 00:20:59;;;;;;;;;;;12.70;54.50;;;;;;2582899;23;19997;-72
2021/01/03 00:22:01;;;;;;;;;;;12.80;54.60;;;;;;2582578;23;20281;-73
2021/01/03 00:23:02;;;;;;;;;;;12.80;54.50;;;;;;2582656;23;19927;-71
2021/01/03 00:24:04;;;;;;;;;;;12.80;54.30;;;;;;2582708;23;19920;-70
2021/01/03 00:25:07;;;;;;;;;;;12.80;54.10;;;;;;2582709;23;19927;-70
2021/01/03 00:26:08;;;;;;;;;;;12.80;54.10;;;;;;2582788;23;19963;-71
2021/01/03 00:27:11;;;;;;;;;;;12.80;54.30;;;;;;2582585;23;19920;-70
2021/01/03 00:28:12;;;;;;;;;;;12.80;54.30;;;;;;2582856;23;19920;-72
2021/01/03 00:29:14;;;;;;;;;;;12.90;54.20;;;;;;2582415;23;19931;-71
2021/01/03 00:30:17;;;;;;;;;;;12.90;54.20;;;;;;2582725;23;19919;-71
2021/01/03 00:31:19;;;;;;;;;;;12.90;54.20;;;;;;2582611;23;19919;-71
2021/01/03 00:32:20;;;;;;;;;;;12.90;54.00;;;;;;2582719;23;19926;-70
2021/01/03 00:33:21;;;;;;;;;;;12.90;54.00;;;;;;2582614;23;20404;-70
2021/01/03 00:34:23;;;;;;;;;;;13.00;54.10;;;;;;2582613;23;19920;-70
2021/01/03 00:35:26;;;;;;;;;;;13.00;54.00;;;;;;2582571;23;19945;-71
2021/01/03 00:36:28;;;;;;;;;;;13.00;53.90;;;;;;2582652;23;19920;-71
2021/01/03 00:37:29;;;;;;;;;;;13.00;53.90;;;;;;2582702;23;19920;-73
2021/01/03 00:38:30;;;;;;;;;;;12.90;53.80;;;;;;2582686;23;19927;-70
2021/01/03 00:39:32;;;;;;;;;;;12.90;53.80;;;;;;2582674;23;19926;-70
2021/01/03 00:40:34;;;;;;;;;;;12.90;53.90;;;;;;2582546;23;19920;-70
2021/01/03 00:41:35;;;;;;;;;;;12.80;53.80;;;;;;2582747;23;19920;-71
2021/01/03 00:42:38;;;;;;;;;;;12.80;54.10;;;;;;2582536;23;20041;-71
2021/01/03 00:43:40;;;;;;;;;;;12.80;54.10;;;;;;2582635;23;19920;-71
2021/01/03 00:44:41;;;;;;;;;;;12.70;54.20;;;;;;2582798;23;19920;-71
2021/01/03 00:45:43;;;;;;;;;;;12.70;54.50;;;;;;2582704;23;19991;-71
2021/01/03 00:46:45;;;;;;;;;;;12.80;54.40;;;;;;2583519;23;19939;-70
2021/01/03 00:47:46;;;;;;;;;;;12.90;54.50;;;;;;2583335;23;19920;-73
2021/01/03 00:48:47;;;;;;;;;;;12.90;54.30;;;;;;2583270;23;19930;-71
2021/01/03 00:49:49;;;;;;;;;;;12.90;54.30;;;;;;2582954;23;19927;-71
2021/01/03 00:50:50;;;;;;;;;;;12.90;54.20;;;;;;2585195;23;19920;-72
2021/01/03 00:51:51;;;;;;;;;;;12.90;54.10;;;;;;2585736;23;20300;-73
2021/01/03 00:52:53;;;;;;;;;;;12.90;54.20;;;;;;2586226;23;19942;-72
2021/01/03 00:53:54;;;;;;;;;;;12.90;53.90;;;;;;2585674;23;20108;-74
2021/01/03 00:54:56;;;;;;;;;;;12.90;54.10;;;;;;2585144;23;19919;-74
2021/01/03 00:55:57;;;;;;;;;;;12.90;54.10;;;;;;2584873;23;19923;-71
2021/01/03 00:56:58;;;;;;;;;;;12.90;54.10;;;;;;2585380;23;19926;-71
2021/01/03 00:58:02;;;;;;;;;;;13.00;54.00;;;;;;2584099;23;19989;-71
2021/01/03 00:59:03;;;;;;;;;;;12.90;53.80;;;;;;2582791;23;20241;-71
2021/01/03 01:00:06;;;;;;;;;;;12.90;53.90;;;;;;2582821;23;19924;-69
2021/01/03 01:01:07;;;;;;;;;;;12.90;54.00;;;;;;2582753;23;19926;-70
2021/01/03 01:02:09;;;;;;;;;;;12.90;54.00;;;;;;2582814;23;19924;-70
2021/01/03 01:03:10;;;;;;;;;;;12.90;53.80;;;;;;2582786;23;19926;-69
2021/01/03 01:04:13;;;;;;;;;;;12.80;53.90;;;;;;2582755;23;20280;-73
2021/01/03 01:05:15;;;;;;;;;;;12.70;53.90;;;;;;2583063;23;20240;-71
2021/01/03 01:06:16;;;;;;;;;;;12.60;54.50;;;;;;2582738;23;19927;-71
2021/01/03 01:07:18;;;;;;;;;;;12.60;54.80;;;;;;2582770;23;19924;-71
2021/01/03 01:08:19;;;;;;;;;;;12.60;54.80;;;;;;2582685;23;19924;-71
2021/01/03 01:09:20;;;;;;;;;;;12.70;54.80;;;;;;2582659;23;20320;-71
2021/01/03 01:10:23;;;;;;;;;;;12.70;54.50;;;;;;2582959;23;19943;-71
2021/01/03 01:11:24;;;;;;;;;;;12.70;54.40;;;;;;2582929;23;19920;-71
2021/01/03 01:12:26;;;;;;;;;;;12.70;54.80;;;;;;2583126;23;19943;-71
2021/01/03 01:13:28;;;;;;;;;;;12.70;54.70;;;;;;2570317;23;19980;-71
2021/01/03 01:14:29;;;;;;;;;;;12.80;54.60;;;;;;2570684;23;19920;-72
2021/01/03 01:15:31;;;;;;;;;;;12.80;54.40;;;;;;2570242;23;19920;-71
2021/01/03 01:16:33;;;;;;;;;;;12.80;54.40;;;;;;2570798;23;19920;-71
2021/01/03 01:17:34;;;;;;;;;;;12.70;53.90;;;;;;2583743;23;19939;-71
2021/01/03 01:18:35;;;;;;;;;;;12.60;53.90;;;;;;2583671;23;19920;-71
2021/01/03 01:19:38;;;;;;;;;;;12.60;54.30;;;;;;2583500;23;20394;-71
2021/01/03 01:20:39;;;;;;;;;;;12.60;54.40;;;;;;2584038;23;20159;-70
2021/01/03 01:21:41;;;;;;;;;;;12.60;54.80;;;;;;2584480;23;20356;-70
2021/01/03 01:22:43;;;;;;;;;;;12.60;54.70;;;;;;2583832;23;19926;-70
2021/01/03 01:23:44;;;;;;;;;;;12.50;54.70;;;;;;2570458;23;20161;-70
2021/01/03 01:24:46;;;;;;;;;;;12.30;55.30;;;;;;2570776;23;19991;-71
2021/01/03 01:25:47;;;;;;;;;;;12.40;55.70;;;;;;2584232;23;20141;-71
2021/01/03 01:26:49;;;;;;;;;;;12.20;54.80;;;;;;2583963;23;19926;-71
2021/01/03 01:27:50;;;;;;;;;;;12.10;55.80;;;;;;2570692;23;19927;-71
2021/01/03 01:28:53;;;;;;;;;;;12.10;55.80;;;;;;2571106;23;19927;-71
2021/01/03 01:29:54;;;;;;;;;;;12.10;55.60;;;;;;2584172;23;19920;-72
2021/01/03 01:30:56;;;;;;;;;;;12.10;55.70;;;;;;2584391;23;19940;-70
2021/01/03 01:31:57;;;;;;;;;;;12.10;55.90;;;;;;2584201;23;19975;-71
2021/01/03 01:32:59;;;;;;;;;;;12.10;55.70;;;;;;2583987;23;19919;-75
2021/01/03 01:34:01;;;;;;;;;;;12.10;56.40;;;;;;2584114;23;19950;-73
2021/01/03 01:35:03;;;;;;;;;;;12.00;55.80;;;;;;2585177;23;19931;-71
2021/01/03 01:36:05;;;;;;;;;;;12.00;55.70;;;;;;2585559;23;20342;-71
2021/01/03 01:37:06;;;;;;;;;;;11.90;55.80;;;;;;2585400;23;19920;-71
2021/01/03 01:38:08;;;;;;;;;;;12.00;56.40;;;;;;2584227;23;19930;-70
2021/01/03 01:39:09;;;;;;;;;;;11.90;56.40;;;;;;2585697;23;20230;-73
2021/01/03 01:40:12;;;;;;;;;;;11.80;56.00;;;;;;2586057;23;19939;-70
2021/01/03 01:41:13;;;;;;;;;;;11.70;55.90;;;;;;2585836;23;19926;-71
2021/01/03 01:42:15;;;;;;;;;;;11.20;55.90;;;;;;2585661;23;19919;-71
2021/01/03 01:43:18;;;;;;;;;;;11.60;56.80;;;;;;2585977;23;20345;-70
2021/01/03 01:44:20;;;;;;;;;;;11.60;56.90;;;;;;2585858;23;19920;-69
2021/01/03 01:45:24;;;;;;;;;;;11.60;57.10;;;;;;2586163;23;19919;-71
2021/01/03 01:46:28;;;;;;;;;;;11.60;57.10;;;;;;2585722;23;19920;-72
2021/01/03 01:47:30;;;;;;;;;;;11.50;56.90;;;;;;2585914;23;19927;-70
2021/01/03 01:48:33;;;;;;;;;;;11.40;56.90;;;;;;2586013;23;19926;-69
2021/01/03 01:49:37;;;;;;;;;;;11.40;57.20;;;;;;2572000;23;19920;-72
2021/01/03 01:50:40;;;;;;;;;;;11.40;57.10;;;;;;2573549;23;19927;-69
2021/01/03 01:51:44;;;;;;;;;;;11.40;57.60;;;;;;2585687;23;19920;-73
2021/01/03 01:52:48;;;;;;;;;;;11.40;57.80;;;;;;2586237;23;19972;-73
2021/01/03 01:53:52;;;;;;;;;;;11.40;57.60;;;;;;2585590;23;19920;-70
2021/01/03 01:54:57;;;;;;;;;;;11.30;57.40;;;;;;2585909;23;19920;-70
2021/01/03 01:56:00;;;;;;;;;;;11.30;58.00;;;;;;2585822;23;19919;-70
2021/01/03 01:57:04;;;;;;;;;;;11.20;58.50;;;;;;2584895;23;19954;-71
2021/01/03 01:58:11;;;;;;;;;;;11.30;58.50;;;;;;2585400;23;19927;-71
2021/01/03 01:59:14;;;;;;;;;;;11.30;58.70;;;;;;2584766;23;19920;-70
2021/01/03 02:00:18;;;;;;;;;;;11.40;58.50;;;;;;2584675;23;19926;-75
2021/01/03 02:01:22;;;;;;;;;;;11.40;58.10;;;;;;2585006;23;19965;-70
2021/01/03 02:02:29;;;;;;;;;;;11.40;58.40;;;;;;2584109;23;20049;-71
2021/01/03 02:03:37;;;;;;;;;;;11.50;58.30;;;;;;2584571;23;19919;-70
2021/01/03 02:04:40;;;;;;;;;;;11.50;58.00;;;;;;2584133;23;20210;-69
2021/01/03 02:05:45;;;;;;;;;;;10.40;56.90;;;;;;2584591;23;19994;-69
2021/01/03 02:06:51;;;;;;;;;;;11.50;57.50;;;;;;2583631;23;19919;-71
2021/01/03 02:07:55;;;;;;;;;;;11.40;58.00;;;;;;2583158;23;20257;-70
2021/01/03 02:08:59;;;;;;;;;;;11.40;58.30;;;;;;2583137;23;19919;-70
2021/01/03 02:10:08;;;;;;;;;;;11.40;58.00;;;;;;2582988;23;19923;-69
2021/01/03 02:11:11;;;;;;;;;;;11.40;59.10;;;;;;2583346;23;19920;-68
2021/01/03 02:12:15;;;;;;;;;;;11.40;58.30;;;;;;2583223;23;19954;-69
2021/01/03 02:13:19;;;;;;;;;;;11.40;58.00;;;;;;2583344;23;19939;-70
2021/01/03 02:14:20;;;;;;;;;;;11.30;57.90;;;;;;2583367;23;19926;-70
2021/01/03 02:15:26;;;;;;;;;;;11.30;58.10;;;;;;2583194;23;19947;-73
2021/01/03 02:16:30;;;;;;;;;;;11.40;58.30;;;;;;2582907;23;19947;-69
2021/01/03 02:17:31;;;;;;;;;;;11.30;57.90;;;;;;2583162;23;20337;-70
2021/01/03 02:18:33;;;;;;;;;;;11.30;58.10;;;;;;2582960;23;19920;-70
2021/01/03 02:19:34;;;;;;;;;;;11.20;57.90;;;;;;2583002;23;19920;-71
2021/01/03 02:20:42;;;;;;;;;;;11.70;59.10;;;;;;2583142;23;19966;-69
2021/01/03 02:21:46;;;;;;;;;;;11.10;58.10;;;;;;2583065;23;19954;-69
2021/01/03 02:22:49;;;;;;;;;;;11.00;58.70;;;;;;2583103;23;19931;-70
2021/01/03 02:23:54;;;;;;;;;;;11.10;58.90;;;;;;2569649;23;19927;-70
2021/01/03 02:24:58;;;;;;;;;;;11.10;59.10;;;;;;2570437;23;19924;-69
2021/01/03 02:26:00;;;;;;;;;;;11.00;58.60;;;;;;2583151;23;20014;-69
2021/01/03 02:27:07;;;;;;;;;;;10.90;60.20;;;;;;2582973;23;20272;-71
2021/01/03 02:28:14;;;;;;;;;;;10.70;60.40;;;;;;2583077;23;19919;-70
2021/01/03 02:29:18;;;;;;;;;;;10.90;60.30;;;;;;2583104;23;19920;-69
2021/01/03 02:30:21;;;;;;;;;;;10.70;60.80;;;;;;2582974;23;19920;-70
2021/01/03 02:31:25;;;;;;;;;;;10.80;60.60;;;;;;2582746;23;19919;-70
2021/01/03 02:32:29;;;;;;;;;;;10.80;60.50;;;;;;2582984;23;19927;-70
2021/01/03 02:33:33;;;;;;;;;;;10.80;60.30;;;;;;2582877;23;19920;-69
2021/01/03 02:34:36;;;;;;;;;;;10.90;60.30;;;;;;2582947;23;20364;-69
2021/01/03 02:35:39;;;;;;;;;;;10.90;60.30;;;;;;2582989;23;19923;-70
2021/01/03 02:36:42;;;;;;;;;;;11.00;60.30;;;;;;2583037;23;19927;-73
2021/01/03 02:37:45;;;;;;;;;;;11.10;60.00;;;;;;2583187;23;19978;-70
2021/01/03 02:38:53;;;;;;;;;;;11.20;59.80;;;;;;2583352;23;19940;-69
2021/01/03 02:39:56;;;;;;;;;;;11.30;59.60;;;;;;2583047;23;19919;-69
2021/01/03 02:40:59;;;;;;;;;;;11.30;59.00;;;;;;2582964;23;19947;-70
2021/01/03 02:42:09;;;;;;;;;;;11.40;58.70;;;;;;2583098;23;19943;-70
2021/01/03 02:43:11;;;;;;;;;;;11.40;58.80;;;;;;2582914;23;20256;-71
2021/01/03 02:44:12;;;;;;;;;;;11.40;58.60;;;;;;2582955;23;20325;-70
2021/01/03 02:45:15;;;;;;;;;;;11.50;58.80;;;;;;2583118;23;19919;-69
2021/01/03 02:46:17;;;;;;;;;;;11.50;58.60;;;;;;2582928;23;19946;-69
2021/01/03 02:47:21;;;;;;;;;;;11.60;58.30;;;;;;2582869;23;19943;-70
2021/01/03 02:48:23;;;;;;;;;;;11.60;58.10;;;;;;2582988;23;19927;-71
2021/01/03 02:49:24;;;;;;;;;;;11.60;58.00;;;;;;2583069;23;19919;-69
2021/01/03 02:50:26;;;;;;;;;;;11.70;58.00;;;;;;2583047;23;19920;-70
2021/01/03 02:51:31;;;;;;;;;;;11.70;57.90;;;;;;2583049;23;19927;-70
2021/01/03 02:52:35;;;;;;;;;;;11.70;57.90;;;;;;2583140;23;19919;-74
2021/01/03 02:53:36;;;;;;;;;;;11.70;57.70;;;;;;2583054;23;19926;-70
2021/01/03 02:54:37;;;;;;;;;;;11.80;57.70;;;;;;2583144;23;19950;-70
2021/01/03 02:55:39;;;;;;;;;;;11.80;57.30;;;;;;2583285;23;19942;-69
2021/01/03 02:56:42;;;;;;;;;;;11.70;57.70;;;;;;2582757;22;19919;-70
2021/01/03 02:57:43;;;;;;;;;;;11.60;57.50;;;;;;2583033;23;19926;-70
2021/01/03 02:58:44;;;;;;;;;;;11.50;57.60;;;;;;2583612;23;19943;-69
2021/01/03 02:59:46;;;;;;;;;;;11.50;58.10;;;;;;2584212;23;19939;-69
2021/01/03 03:00:47;;;;;;;;;;;11.50;58.50;;;;;;2584479;23;19971;-73
2021/01/03 03:01:48;;;;;;;;;;;11.60;58.50;;;;;;2584608;23;20380;-69
2021/01/03 03:02:50;;;;;;;;;;;11.70;58.40;;;;;;2570951;23;20384;-70
2021/01/03 03:03:51;;;;;;;;;;;11.80;58.00;;;;;;2571658;23;20253;-71
2021/01/03 03:04:53;;;;;;;;;;;11.90;57.80;;;;;;2584382;23;19923;-73
2021/01/03 03:05:54;;;;;;;;;;;12.00;57.50;;;;;;2584709;23;19920;-70
2021/01/03 03:06:55;;;;;;;;;;;10.70;56.60;;;;;;2584539;23;19943;-69
2021/01/03 03:07:57;;;;;;;;;;;12.00;57.10;;;;;;2585016;23;19927;-72
2021/01/03 03:08:58;;;;;;;;;;;12.10;57.10;;;;;;2585352;23;20253;-71
2021/01/03 03:10:01;;;;;;;;;;;12.10;56.70;;;;;;2584819;23;19954;-73
2021/01/03 03:11:02;;;;;;;;;;;12.20;56.50;;;;;;2584883;23;19924;-70
2021/01/03 03:12:05;;;;;;;;;;;12.20;56.70;;;;;;2584637;23;20135;-70
2021/01/03 03:13:07;;;;;;;;;;;12.10;55.70;;;;;;2584538;23;19931;-75
2021/01/03 03:14:08;;;;;;;;;;;12.00;56.70;;;;;;2584451;23;19931;-71
2021/01/03 03:15:10;;;;;;;;;;;11.90;56.00;;;;;;2584838;23;20159;-74
2021/01/03 03:16:15;;;;;;;;;;;11.60;56.40;;;;;;2571575;23;19919;-73
2021/01/03 03:17:16;;;;;;;;;;;11.30;57.60;;;;;;2572515;23;19927;-73
2021/01/03 03:18:18;;;;;;;;;;;11.20;57.80;;;;;;2584536;23;20376;-72
2021/01/03 03:19:19;;;;;;;;;;;10.90;59.20;;;;;;2584510;23;19961;-74
2021/01/03 03:20:21;;;;;;;;;;;11.00;59.80;;;;;;2584424;23;20242;-70
2021/01/03 03:21:22;;;;;;;;;;;11.10;59.70;;;;;;2570554;23;19920;-71
2021/01/03 03:22:24;;;;;;;;;;;11.30;59.60;;;;;;2570243;23;19991;-71
2021/01/03 03:23:26;;;;;;;;;;;11.30;58.60;;;;;;2582924;23;19920;-71
2021/01/03 03:24:28;;;;;;;;;;;11.20;58.20;;;;;;2582959;23;19920;-70
2021/01/03 03:25:30;;;;;;;;;;;11.30;59.30;;;;;;2582975;23;19920;-70
2021/01/03 03:26:31;;;;;;;;;;;11.30;59.10;;;;;;2569596;23;19923;-70
2021/01/03 03:27:33;;;;;;;;;;;11.30;58.80;;;;;;2569903;23;19927;-70
2021/01/03 03:28:35;;;;;;;;;;;11.20;58.50;;;;;;2582932;23;19927;-70
2021/01/03 03:29:36;;;;;;;;;;;11.20;59.10;;;;;;2582668;23;20250;-70
2021/01/03 03:30:37;;;;;;;;;;;11.20;58.40;;;;;;2583084;23;20162;-70
2021/01/03 03:31:39;;;;;;;;;;;11.10;58.60;;;;;;2582903;23;19927;-71
2021/01/03 03:32:41;;;;;;;;;;;10.90;58.90;;;;;;2582880;23;19943;-70
2021/01/03 03:33:43;;;;;;;;;;;10.70;60.30;;;;;;2569573;23;19991;-70
2021/01/03 03:34:44;;;;;;;;;;;10.60;60.10;;;;;;2570188;23;19924;-70
2021/01/03 03:35:45;;;;;;;;;;;10.50;60.80;;;;;;2582660;23;19920;-69
2021/01/03 03:36:50;;;;;;;;;;;10.60;61.20;;;;;;2582854;23;19927;-71
2021/01/03 03:37:51;;;;;;;;;;;10.50;61.40;;;;;;2582856;23;20282;-70
2021/01/03 03:38:53;;;;;;;;;;;10.60;61.30;;;;;;2582943;23;19920;-69
2021/01/03 03:39:54;;;;;;;;;;;10.30;60.80;;;;;;2583101;23;19927;-69
2021/01/03 03:40:56;;;;;;;;;;;10.10;62.30;;;;;;2582942;23;19920;-70
2021/01/03 03:41:58;;;;;;;;;;;10.20;62.50;;;;;;2582822;23;20265;-69
2021/01/03 03:43:00;;;;;;;;;;;10.30;62.40;;;;;;2582995;23;19920;-69
2021/01/03 03:44:02;;;;;;;;;;;10.50;62.20;;;;;;2583145;23;19927;-69
2021/01/03 03:45:04;;;;;;;;;;;10.60;62.10;;;;;;2583126;23;19920;-69
2021/01/03 03:46:06;;;;;;;;;;;10.80;61.80;;;;;;2582842;23;20333;-69
2021/01/03 03:47:07;;;;;;;;;;;10.90;60.70;;;;;;2582758;23;20331;-69
2021/01/03 03:48:09;;;;;;;;;;;10.90;60.50;;;;;;2582892;23;19930;-70
2021/01/03 03:49:10;;;;;;;;;;;10.90;60.50;;;;;;2582870;23;20181;-70
2021/01/03 03:50:13;;;;;;;;;;;11.00;60.70;;;;;;2582800;23;21834;-69
2021/01/03 03:51:15;;;;;;;;;;;11.10;59.20;;;;;;2582839;23;19927;-70
2021/01/03 03:52:17;;;;;;;;;;;10.90;59.40;;;;;;2582994;23;19930;-71
2021/01/03 03:53:18;;;;;;;;;;;11.00;60.80;;;;;;2582784;23;19926;-71
2021/01/03 03:54:19;;;;;;;;;;;11.10;60.10;;;;;;2582910;23;19950;-71
2021/01/03 03:55:21;;;;;;;;;;;11.20;59.80;;;;;;2569411;23;20333;-70
2021/01/03 03:56:22;;;;;;;;;;;11.10;59.60;;;;;;2569434;23;19920;-69
2021/01/03 03:57:24;;;;;;;;;;;11.20;58.80;;;;;;2582768;23;20276;-70
2021/01/03 03:58:26;;;;;;;;;;;11.20;59.50;;;;;;2582690;23;19926;-70
2021/01/03 03:59:28;;;;;;;;;;;11.20;59.00;;;;;;2582866;23;19939;-71
2021/01/03 04:00:29;;;;;;;;;;;11.10;58.90;;;;;;2582793;23;20368;-70
2021/01/03 04:01:37;;;;;;;;;;;11.10;59.30;;;;;;2582913;23;19919;-70
2021/01/03 04:02:40;;;;;;;;;;;11.00;59.70;;;;;;2582816;23;19946;-70
2021/01/03 04:03:41;;;;;;;;;;;11.10;58.90;;;;;;2582844;23;19947;-70
2021/01/03 04:04:44;;;;;;;;;;;10.90;59.10;;;;;;2582863;23;19949;-70
2021/01/03 04:05:46;;;;;;;;;;;11.00;59.80;;;;;;2583121;23;19923;-69
2021/01/03 04:06:47;;;;;;;;;;;11.00;59.40;;;;;;2582666;23;19927;-71
2021/01/03 04:07:49;;;;;;;;;;;11.00;59.90;;;;;;2582786;23;19990;-71
2021/01/03 04:08:50;;;;;;;;;;;11.00;59.70;;;;;;2583049;23;19927;-71
2021/01/03 04:09:52;;;;;;;;;;;11.10;59.90;;;;;;2582926;23;19972;-70
2021/01/03 04:10:54;;;;;;;;;;;11.20;60.10;;;;;;2583128;23;19920;-69
2021/01/03 04:11:55;;;;;;;;;;;11.30;59.70;;;;;;2583167;23;19923;-70
2021/01/03 04:12:56;;;;;;;;;;;11.40;59.10;;;;;;2582880;23;19920;-70
2021/01/03 04:13:59;;;;;;;;;;;11.50;58.50;;;;;;2583351;23;19950;-70
2021/01/03 04:15:01;;;;;;;;;;;11.40;58.30;;;;;;2582753;23;19946;-70
2021/01/03 04:16:06;;;;;;;;;;;11.40;57.90;;;;;;2582787;23;19928;-70
2021/01/03 04:17:07;;;;;;;;;;;11.40;58.70;;;;;;2582694;23;19926;-69
2021/01/03 04:18:09;;;;;;;;;;;11.50;58.60;;;;;;2582782;23;20329;-69
2021/01/03 04:19:10;;;;;;;;;;;11.50;58.70;;;;;;2582934;23;19920;-70
2021/01/03 04:20:14;;;;;;;;;;;11.60;58.60;;;;;;2582808;23;19953;-69
2021/01/03 04:21:16;;;;;;;;;;;11.60;58.20;;;;;;2582769;23;19920;-69
2021/01/03 04:22:17;;;;;;;;;;;11.70;58.10;;;;;;2582898;23;19919;-72
2021/01/03 04:23:19;;;;;;;;;;;11.80;57.90;;;;;;2583132;23;19947;-70
2021/01/03 04:24:33;;;;;;;;;;;11.80;57.80;;;;;;2583038;23;19943;-69
2021/01/03 04:25:35;;;;;;;;;;;11.90;57.70;;;;;;2582882;23;19927;-69
2021/01/03 04:26:36;;;;;;;;;;;11.90;57.30;;;;;;2582695;23;19920;-70
2021/01/03 04:27:38;;;;;;;;;;;12.00;57.30;;;;;;2582697;23;19984;-70
2021/01/03 04:28:39;;;;;;;;;;;12.10;57.10;;;;;;2582724;23;19919;-70
2021/01/03 04:29:42;;;;;;;;;;;12.10;56.80;;;;;;2582737;23;19986;-69
2021/01/03 04:30:44;;;;;;;;;;;12.10;56.60;;;;;;2582381;23;19919;-70
2021/01/03 04:31:45;;;;;;;;;;;12.10;56.30;;;;;;2582708;23;19920;-70
2021/01/03 04:32:47;;;;;;;;;;;12.10;56.70;;;;;;2582479;23;19926;-69
2021/01/03 04:33:48;;;;;;;;;;;12.10;56.50;;;;;;2569339;23;20293;-69
2021/01/03 04:34:50;;;;;;;;;;;12.10;56.70;;;;;;2569452;23;20247;-70
2021/01/03 04:35:51;;;;;;;;;;;12.10;56.60;;;;;;2582829;23;19941;-73
2021/01/03 04:36:53;;;;;;;;;;;12.20;56.30;;;;;;2569327;23;20460;-72
2021/01/03 04:37:55;;;;;;;;;;;12.10;56.20;;;;;;2569826;23;19919;-70
2021/01/03 04:38:56;;;;;;;;;;;12.00;56.00;;;;;;2582676;23;19920;-71
2021/01/03 04:39:58;;;;;;;;;;;12.00;56.40;;;;;;2582766;23;19930;-71
2021/01/03 04:40:59;;;;;;;;;;;11.90;56.00;;;;;;2582636;23;19931;-70
2021/01/03 04:42:02;;;;;;;;;;;11.70;55.90;;;;;;2582810;23;19919;-71
2021/01/03 04:43:05;;;;;;;;;;;11.50;57.10;;;;;;2582647;23;20341;-71
2021/01/03 04:44:10;;;;;;;;;;;11.60;57.80;;;;;;2582653;23;19927;-70
2021/01/03 04:45:16;;;;;;;;;;;11.60;57.60;;;;;;2582625;23;19971;-72
2021/01/03 04:46:18;;;;;;;;;;;11.70;57.60;;;;;;2582762;23;19937;-71
2021/01/03 04:47:21;;;;;;;;;;;11.40;57.20;;;;;;2582761;23;19920;-70
2021/01/03 04:48:27;;;;;;;;;;;11.40;57.80;;;;;;2583561;23;19926;-69
2021/01/03 04:49:33;;;;;;;;;;;11.40;58.00;;;;;;2583763;23;19919;-70
2021/01/03 04:50:42;;;;;;;;;;;11.40;57.50;;;;;;2583500;23;19920;-71
2021/01/03 04:52:00;;;;;;;;;;;11.50;58.40;;;;;;2583688;23;19926;-70
2021/01/03 04:53:05;;;;;;;;;;;11.40;58.20;;;;;;2583539;23;19919;-70
2021/01/03 04:54:10;;;;;;;;;;;11.40;58.40;;;;;;2583551;23;19924;-72
2021/01/03 04:55:16;;;;;;;;;;;11.50;58.10;;;;;;2583401;23;20234;-70
2021/01/03 04:56:20;;;;;;;;;;;11.60;58.10;;;;;;2583328;23;20360;-70
2021/01/03 04:57:30;;;;;;;;;;;11.40;56.60;;;;;;2583456;23;19920;-71
2021/01/03 04:58:35;;;;;;;;;;;11.10;57.60;;;;;;2583739;23;19920;-70
2021/01/03 04:59:40;;;;;;;;;;;10.80;58.60;;;;;;2583649;23;19923;-70
2021/01/03 05:00:44;;;;;;;;;;;10.80;59.60;;;;;;2570600;23;19931;-68
2021/01/03 05:01:55;;;;;;;;;;;11.00;59.60;;;;;;2571128;23;19943;-71
2021/01/03 05:03:14;;;;;;;;;;;10.80;58.80;;;;;;2584286;23;19947;-70
2021/01/03 05:04:30;;;;;;;;;;;10.60;59.30;;;;;;2583822;23;19927;-72
2021/01/03 05:05:33;;;;;;;;;;;10.80;59.90;;;;;;2584021;23;19927;-70
2021/01/03 05:06:35;;;;;;;;;;;10.80;59.70;;;;;;2584854;23;19926;-72
2021/01/03 05:07:39;;;;;;;;;;;10.90;59.90;;;;;;2584663;23;20252;-70
2021/01/03 05:08:42;;;;;;;;;;;11.00;59.70;;;;;;2585854;23;19927;-70
2021/01/03 05:09:44;;;;;;;;;;;11.00;59.60;;;;;;2586724;23;19954;-72
2021/01/03 05:10:46;;;;;;;;;;;11.00;58.80;;;;;;2586593;23;19919;-73
2021/01/03 05:11:51;;;;;;;;;;;10.90;58.80;;;;;;2586904;23;19920;-69
2021/01/03 05:12:58;;;;;;;;;;;10.70;58.90;;;;;;2587027;23;19926;-70
2021/01/03 05:14:06;;;;;;;;;;;10.50;59.40;;;;;;2586366;23;19919;-68
2021/01/03 05:15:10;;;;;;;;;;;10.50;59.70;;;;;;2586222;23;19935;-71
2021/01/03 05:16:14;;;;;;;;;;;10.40;60.10;;;;;;2586120;23;19927;-74
2021/01/03 05:17:15;;;;;;;;;;;10.20;60.70;;;;;;2585584;23;19920;-71
2021/01/03 05:18:17;;;;;;;;;;;10.20;60.60;;;;;;2586313;23;19919;-71
2021/01/03 05:19:18;;;;;;;;;;;10.10;60.80;;;;;;2585844;23;19943;-70
2021/01/03 05:20:20;;;;;;;;;;;10.10;62.00;;;;;;2586020;23;20242;-69
2021/01/03 05:21:21;;;;;;;;;;;10.10;61.70;;;;;;2585005;23;20238;-69
2021/01/03 05:22:24;;;;;;;;;;;10.20;61.80;;;;;;2585292;23;20356;-69
2021/01/03 05:23:27;;;;;;;;;;;10.20;61.80;;;;;;2586749;23;19919;-69
2021/01/03 05:24:29;;;;;;;;;;;10.20;60.70;;;;;;2586564;23;19919;-73
2021/01/03 05:25:38;;;;;;;;;;;10.20;61.50;;;;;;2585931;23;19928;-70
2021/01/03 05:26:39;;;;;;;;;;;10.20;60.90;;;;;;2586158;23;20001;-69
2021/01/03 05:27:41;;;;;;;;;;;10.20;61.90;;;;;;2586769;23;19927;-71
2021/01/03 05:28:53;;;;;;;;;;;10.20;61.80;;;;;;2586056;23;20264;-72
2021/01/03 05:30:09;;;;;;;;;;;10.30;61.60;;;;;;2572920;23;19927;-70
2021/01/03 05:31:14;;;;;;;;;;;10.20;61.50;;;;;;2576308;23;19955;-72
2021/01/03 05:32:25;;;;;;;;;;;10.20;61.80;;;;;;2573339;23;19947;-70
2021/01/03 05:33:28;;;;;;;;;;;10.20;61.50;;;;;;2575561;23;19940;-72
2021/01/03 05:34:31;;;;;;;;;;;10.20;61.80;;;;;;2586380;23;19919;-72
2021/01/03 05:35:35;;;;;;;;;;;10.30;62.10;;;;;;2586227;23;19920;-74
2021/01/03 05:36:42;;;;;;;;;;;10.40;62.00;;;;;;2571327;23;20352;-70
2021/01/03 05:37:44;;;;;;;;;;;10.40;62.10;;;;;;2572951;23;19977;-70
2021/01/03 05:38:45;;;;;;;;;;;10.40;62.30;;;;;;2584885;23;19934;-72
2021/01/03 05:39:47;;;;;;;;;;;10.50;61.60;;;;;;2584607;23;19930;-70
2021/01/03 05:40:50;;;;;;;;;;;10.30;61.00;;;;;;2584083;23;19923;-70
2021/01/03 05:41:56;;;;;;;;;;;10.20;61.30;;;;;;2583591;23;19919;-69
2021/01/03 05:43:08;;;;;;;;;;;10.20;62.40;;;;;;2583592;23;20257;-69
2021/01/03 05:44:11;;;;;;;;;;;10.30;62.10;;;;;;2583821;23;19920;-68
2021/01/03 05:45:22;;;;;;;;;;;10.20;61.70;;;;;;2583538;23;19919;-69
2021/01/03 05:46:30;;;;;;;;;;;10.30;62.10;;;;;;2583675;23;19926;-69
2021/01/03 05:47:35;;;;;;;;;;;10.30;62.30;;;;;;2583326;23;19947;-69
2021/01/03 05:48:38;;;;;;;;;;;10.40;61.50;;;;;;2583323;23;19939;-69
2021/01/03 05:49:40;;;;;;;;;;;10.10;61.90;;;;;;2583222;23;19994;-70
2021/01/03 05:50:42;;;;;;;;;;;10.10;62.10;;;;;;2583012;23;19920;-69
2021/01/03 05:51:46;;;;;;;;;;;9.90;62.20;;;;;;2583134;23;19920;-69
2021/01/03 05:52:49;;;;;;;;;;;10.00;63.10;;;;;;2583248;23;20353;-70
2021/01/03 05:53:58;;;;;;;;;;;9.80;63.00;;;;;;2583380;23;20106;-67
2021/01/03 05:55:01;;;;;;;;;;;9.80;63.80;;;;;;2583295;23;19962;-69
2021/01/03 05:56:12;;;;;;;;;;;9.50;63.40;;;;;;2582857;23;19924;-70
2021/01/03 05:57:18;;;;;;;;;;;9.60;64.80;;;;;;2583073;23;19919;-69
2021/01/03 05:58:22;;;;;;;;;;;9.60;64.10;;;;;;2583278;23;19919;-68
2021/01/03 05:59:27;;;;;;;;;;;9.60;63.80;;;;;;2582954;23;19920;-70
2021/01/03 06:00:28;;;;;;;;;;;9.60;63.90;;;;;;2583106;23;20285;-69
2021/01/03 06:01:32;;;;;;;;;;;9.50;64.40;;;;;;2583058;23;19926;-70
2021/01/03 06:02:33;;;;;;;;;;;9.30;64.70;;;;;;2583363;23;19943;-70
2021/01/03 06:03:34;;;;;;;;;;;9.10;65.30;;;;;;2583442;23;19920;-70
2021/01/03 06:04:36;;;;;;;;;;;9.10;67.00;;;;;;2583143;23;19954;-70
2021/01/03 06:05:41;;;;;;;;;;;9.10;66.00;;;;;;2583373;23;19920;-69
2021/01/03 06:07:01;;;;;;;;;;;9.10;66.60;;;;;;2583357;23;19919;-69